createdAt,value
2023-03-06T10:38:42.891Z,1002
2023-03-06T10:40:27.761Z,1002
2023-03-06T10:42:12.775Z,1002
2023-03-06T10:43:57.823Z,1002
2023-03-06T10:45:48.820Z,1002
2023-03-06T10:47:27.802Z,1002
2023-03-06T10:49:12.841Z,1002
2023-03-06T10:53:24.655Z,1002.960022
2023-03-06T10:55:11.730Z,1002.960022
2023-03-06T10:56:54.679Z,1003.01001
2023-03-06T10:58:39.635Z,1003.01001
2023-03-06T11:00:24.612Z,1003.02002
2023-03-06T11:02:09.682Z,1002.950012
2023-03-06T11:03:54.674Z,1002.960022
2023-03-06T11:05:39.923Z,1002.940002
2023-03-06T11:07:24.647Z,1003.030029
2023-03-06T11:09:09.691Z,1003.02002
2023-03-06T11:10:54.678Z,1002.940002
2023-03-06T11:12:39.629Z,1003.030029
2023-03-06T11:16:55.273Z,1003.08
2023-03-06T11:18:40.213Z,1003.01
2023-03-06T11:20:25.213Z,1003.01
2023-03-06T11:22:10.291Z,1002.98
2023-03-06T11:23:55.270Z,1002.94
2023-03-06T11:25:40.261Z,1003.04
2023-03-06T11:27:25.261Z,1002.96
2023-03-06T11:29:10.239Z,1002.9
2023-03-06T11:30:55.282Z,1002.93
2023-03-06T11:32:40.298Z,1002.88
2023-03-06T11:34:25.320Z,1002.87
2023-03-06T11:36:10.221Z,1002.9
2023-03-06T11:37:55.261Z,1002.93
2023-03-06T11:39:40.266Z,1002.9
2023-03-06T11:41:25.252Z,1002.91
2023-03-06T11:43:10.339Z,1002.87
2023-03-06T11:44:55.281Z,1002.88
2023-03-06T11:46:40.321Z,1002.82
2023-03-06T11:48:25.307Z,1002.85
2023-03-06T11:50:10.280Z,1002.76
2023-03-06T11:51:55.272Z,1002.85
2023-03-06T11:53:43.219Z,1002.79
2023-03-06T11:55:25.245Z,1002.8
2023-03-06T11:57:10.221Z,1002.81
2023-03-06T11:58:55.332Z,1002.76
2023-03-06T12:00:40.323Z,1002.72
2023-03-06T12:02:25.338Z,1002.64
2023-03-06T12:04:10.361Z,1002.66
2023-03-06T12:05:55.286Z,1002.8
2023-03-06T12:07:40.319Z,1002.67
2023-03-06T12:09:25.332Z,1002.72
2023-03-06T12:11:10.276Z,1002.66
2023-03-06T12:12:55.314Z,1002.68
2023-03-06T12:14:40.331Z,1002.65
2023-03-06T12:16:25.288Z,1002.75
2023-03-06T12:18:10.285Z,1002.66
2023-03-06T12:19:55.379Z,1002.65
2023-03-06T12:21:40.295Z,1002.58
2023-03-06T12:23:25.275Z,1002.54
2023-03-06T12:25:10.270Z,1002.56
2023-03-06T12:26:55.275Z,1002.56
2023-03-06T12:28:40.303Z,1002.48
2023-03-06T12:30:25.312Z,1002.64
2023-03-06T12:32:10.441Z,1002.41
2023-03-06T12:33:55.303Z,1002.4
2023-03-06T12:35:40.361Z,1002.35
2023-03-06T12:37:25.358Z,1002.29
2023-03-06T12:39:10.304Z,1002.28
2023-03-06T12:40:55.288Z,1002.28
2023-03-06T12:42:40.328Z,1002.35
2023-03-06T12:44:25.343Z,1002.29
2023-03-06T12:46:10.349Z,1002.33
2023-03-06T12:47:55.355Z,1002.33
2023-03-06T12:49:40.342Z,1002.21
2023-03-06T12:51:25.309Z,1002.26
2023-03-06T12:53:10.324Z,1002.25
2023-03-06T12:54:55.305Z,1002.24
2023-03-06T12:56:40.317Z,1002.3
2023-03-06T12:58:25.382Z,1002.27
2023-03-06T13:00:10.330Z,1002.23
2023-03-06T13:01:55.399Z,1002.25
2023-03-06T13:03:40.367Z,1002.18
2023-03-06T13:05:25.338Z,1002.11
2023-03-06T13:07:10.724Z,1002.12
2023-03-06T13:08:55.361Z,1002.28
2023-03-06T13:10:40.355Z,1002.23
2023-03-06T13:12:25.349Z,1002.15
2023-03-06T13:14:10.372Z,1002.19
2023-03-06T13:15:55.348Z,1002.14
2023-03-06T13:17:40.409Z,1002.07
2023-03-06T13:19:25.353Z,1001.96
2023-03-06T13:21:10.353Z,1002.12
2023-03-06T13:22:55.370Z,1001.97
2023-03-06T13:24:40.345Z,1002.09
2023-03-06T13:26:25.377Z,1002.09
2023-03-06T13:28:10.386Z,1001.94
2023-03-06T13:29:55.361Z,1001.93
2023-03-06T13:31:41.125Z,1001.92
2023-03-06T13:33:25.375Z,1002.04
2023-03-06T13:35:10.364Z,1001.96
2023-03-06T13:36:55.429Z,1001.88
2023-03-06T13:38:40.366Z,1001.97
2023-03-06T13:40:25.356Z,1002.04
2023-03-06T13:42:10.422Z,1001.93
2023-03-06T13:43:55.377Z,1001.92
2023-03-06T13:45:40.372Z,1001.92
2023-03-06T13:47:25.388Z,1001.93
2023-03-06T13:49:10.439Z,1001.95
2023-03-06T13:50:55.407Z,1001.89
2023-03-06T13:52:40.432Z,1001.8
2023-03-06T13:54:25.383Z,1001.83
2023-03-06T13:56:10.388Z,1001.77
2023-03-06T13:57:55.417Z,1001.84
2023-03-06T13:59:40.413Z,1001.89
2023-03-06T14:01:25.465Z,1001.84
2023-03-06T14:03:10.446Z,1001.76
2023-03-06T14:04:55.456Z,1001.78
2023-03-06T14:06:40.394Z,1001.8
2023-03-06T14:08:25.433Z,1001.72
2023-03-06T14:10:10.467Z,1001.81
2023-03-06T14:11:55.387Z,1001.73
2023-03-06T14:13:47.037Z,1001.73
2023-03-06T14:15:25.407Z,1001.71
2023-03-06T14:17:10.411Z,1001.64
2023-03-06T14:18:55.461Z,1001.65
2023-03-06T14:20:40.423Z,1001.66
2023-03-06T14:22:25.453Z,1001.6
2023-03-06T14:24:10.426Z,1001.65
2023-03-06T14:25:55.411Z,1001.57
2023-03-06T14:27:40.415Z,1001.58
2023-03-06T14:29:25.483Z,1001.65
2023-03-06T14:31:10.425Z,1001.58
2023-03-06T14:32:55.450Z,1001.63
2023-03-06T14:34:40.445Z,1001.56
2023-03-06T14:36:25.465Z,1001.68
2023-03-06T14:38:10.433Z,1001.57
2023-03-06T14:39:55.494Z,1001.59
2023-03-06T14:41:40.452Z,1001.61
2023-03-06T14:43:25.436Z,1001.65
2023-03-06T14:45:10.463Z,1001.53
2023-03-06T14:46:55.517Z,1001.64
2023-03-06T14:48:40.444Z,1001.52
2023-03-06T14:50:25.560Z,1001.59
2023-03-06T14:52:10.492Z,1001.4
2023-03-06T14:53:55.456Z,1001.47
2023-03-06T14:55:40.492Z,1001.58
2023-03-06T14:57:25.462Z,1001.52
2023-03-06T14:59:10.461Z,1001.57
2023-03-06T15:00:55.600Z,1001.47
2023-03-06T15:02:40.529Z,1001.58
2023-03-06T15:04:25.457Z,1001.62
2023-03-06T15:06:10.542Z,1001.52
2023-03-06T15:07:55.512Z,1001.52
2023-03-06T15:09:40.471Z,1001.48
2023-03-06T15:11:25.566Z,1001.48
2023-03-06T15:13:10.489Z,1001.45
2023-03-06T15:14:55.492Z,1001.5
2023-03-06T15:16:40.660Z,1001.43
2023-03-06T15:18:25.483Z,1001.42
2023-03-06T15:20:10.504Z,1001.41
2023-03-06T15:21:55.557Z,1001.46
2023-03-06T15:23:40.506Z,1001.4
2023-03-06T15:25:25.560Z,1001.38
2023-03-06T15:27:10.541Z,1001.42
2023-03-06T15:28:59.928Z,1001.4
2023-03-06T15:30:40.509Z,1001.32
2023-03-06T15:32:25.741Z,1001.35
2023-03-06T15:34:10.516Z,1001.3
2023-03-06T15:35:55.526Z,1001.35
2023-03-06T15:37:40.566Z,1001.27
2023-03-06T15:39:25.568Z,1001.32
2023-03-06T15:41:10.540Z,1001.26
2023-03-06T15:42:55.545Z,1001.22
2023-03-06T15:44:40.531Z,1001.2
2023-03-06T15:46:25.586Z,1001.3
2023-03-06T15:48:10.664Z,1001.22
2023-03-06T15:49:55.529Z,1001.32
2023-03-06T15:51:40.536Z,1001.24
2023-03-06T15:53:25.608Z,1001.21
2023-03-06T15:55:10.599Z,1001.2
2023-03-06T15:56:55.557Z,1001.21
2023-03-06T15:58:40.729Z,1001.18
2023-03-06T16:00:27.843Z,1001.14
2023-03-06T16:02:10.532Z,1001.17
2023-03-06T16:03:55.666Z,1001.14
2023-03-06T16:05:40.553Z,1001.21
2023-03-06T16:07:26.795Z,1001.23
2023-03-06T16:09:10.582Z,1001.23
2023-03-06T16:10:55.573Z,1001.23
2023-03-06T16:12:40.569Z,1001.21
2023-03-06T16:14:25.628Z,1001.23
2023-03-06T16:16:10.599Z,1001.24
2023-03-06T16:17:55.573Z,1001.17
2023-03-06T16:19:40.667Z,1001.11
2023-03-06T16:21:25.585Z,1001.05
2023-03-06T16:23:10.730Z,1001.1
2023-03-06T16:24:55.678Z,1001.14
2023-03-06T16:26:40.617Z,1001.22
2023-03-06T16:28:25.585Z,1001.06
2023-03-06T16:30:10.612Z,1001.11
2023-03-06T16:31:55.589Z,1001.1
2023-03-06T16:33:40.611Z,1001.07
2023-03-06T16:35:25.692Z,1001.05
2023-03-06T16:37:10.579Z,1001.02
2023-03-06T16:38:55.595Z,1001.05
2023-03-06T16:40:40.646Z,1000.93
2023-03-06T16:42:25.630Z,1001.08
2023-03-06T16:44:10.599Z,1000.98
2023-03-06T16:45:55.647Z,1000.94
2023-03-06T16:47:40.616Z,1000.87
2023-03-06T16:49:25.711Z,1000.92
2023-03-06T16:51:10.675Z,1000.89
2023-03-06T16:52:55.626Z,1000.81
2023-03-06T16:54:40.614Z,1000.93
2023-03-06T16:56:25.636Z,1000.9
2023-03-06T16:58:10.658Z,1000.85
2023-03-06T16:59:55.637Z,1000.86
2023-03-06T17:01:40.784Z,1000.78
2023-03-06T17:03:25.608Z,1000.73
2023-03-06T17:05:10.638Z,1000.7
2023-03-06T17:06:55.666Z,1000.77
2023-03-06T17:08:40.655Z,1000.78
2023-03-06T17:10:25.655Z,1000.73
2023-03-06T17:12:10.728Z,1000.78
2023-03-06T17:13:55.707Z,1000.7
2023-03-06T17:15:40.702Z,1000.62
2023-03-06T17:17:25.686Z,1000.64
2023-03-06T17:19:10.645Z,1000.68
2023-03-06T17:20:55.636Z,1000.62
2023-03-06T17:22:40.707Z,1000.61
2023-03-06T17:24:25.676Z,1000.61
2023-03-06T17:26:10.657Z,1000.65
2023-03-06T17:27:55.696Z,1000.61
2023-03-06T17:29:40.721Z,1000.58
2023-03-06T17:31:25.701Z,1000.65
2023-03-06T17:33:10.788Z,1000.6
2023-03-06T17:34:55.663Z,1000.55
2023-03-06T17:36:40.697Z,1000.56
2023-03-06T17:38:25.720Z,1000.51
2023-03-06T17:40:10.716Z,1000.65
2023-03-06T17:41:55.694Z,1000.63
2023-03-06T17:43:40.744Z,1000.62
2023-03-06T17:45:25.704Z,1000.62
2023-03-06T17:47:10.701Z,1000.59
2023-03-06T17:48:55.744Z,1000.56
2023-03-06T17:50:40.691Z,1000.54
2023-03-06T17:52:25.699Z,1000.5
2023-03-06T17:54:10.724Z,1000.5
2023-03-06T17:55:55.708Z,1000.48
2023-03-06T17:57:40.699Z,1000.53
2023-03-06T17:59:25.760Z,1000.37
2023-03-06T18:01:10.729Z,1000.4
2023-03-06T18:02:55.736Z,1000.45
2023-03-06T18:04:40.743Z,1000.44
2023-03-06T18:06:25.708Z,1000.38
2023-03-06T18:08:10.729Z,1000.42
2023-03-06T18:09:55.783Z,1000.32
2023-03-06T18:11:40.729Z,1000.4
2023-03-06T18:13:25.737Z,1000.31
2023-03-06T18:15:10.744Z,1000.31
2023-03-06T18:16:55.729Z,1000.31
2023-03-06T18:18:40.721Z,1000.41
2023-03-06T18:20:25.752Z,1000.31
2023-03-06T18:22:10.723Z,1000.35
2023-03-06T18:23:55.720Z,1000.35
2023-03-06T18:25:41.437Z,1000.32
2023-03-06T18:27:25.743Z,1000.17
2023-03-06T18:29:10.742Z,1000.13
2023-03-06T18:30:55.753Z,1000.26
2023-03-06T18:32:40.853Z,1000.25
2023-03-06T18:34:25.723Z,1000.2
2023-03-06T18:36:10.837Z,1000.12
2023-03-06T18:37:55.729Z,1000.13
2023-03-06T18:39:40.733Z,1000.13
2023-03-06T18:41:25.786Z,1000.19
2023-03-06T18:43:10.752Z,1000.12
2023-03-06T18:44:55.766Z,1000.14
2023-03-06T18:46:40.803Z,1000.08
2023-03-06T18:48:25.792Z,1000.04
2023-03-06T18:50:10.747Z,1000.07
2023-03-06T18:51:55.812Z,1000
2023-03-06T18:53:40.783Z,1000.03
2023-03-06T18:55:25.771Z,999.98
2023-03-06T18:57:10.818Z,1000.02
2023-03-06T18:58:55.756Z,1000.01
2023-03-06T19:00:40.802Z,999.94
2023-03-06T19:02:25.815Z,999.92
2023-03-06T19:04:10.894Z,999.94
2023-03-06T19:05:55.772Z,999.86
2023-03-06T19:07:40.847Z,999.88
2023-03-06T19:09:25.771Z,999.95
2023-03-06T19:11:10.784Z,999.87
2023-03-06T19:12:55.836Z,999.84
2023-03-06T19:14:40.798Z,999.76
2023-03-06T19:16:25.857Z,999.72
2023-03-06T19:18:10.812Z,999.73
2023-03-06T19:19:55.804Z,999.83
2023-03-06T19:21:40.786Z,999.72
2023-03-06T19:23:25.788Z,999.84
2023-03-06T19:25:10.780Z,999.68
2023-03-06T19:26:55.795Z,999.69
2023-03-06T19:28:40.833Z,999.68
2023-03-06T19:30:25.820Z,999.6
2023-03-06T19:32:10.985Z,999.67
2023-03-06T19:33:55.839Z,999.65
2023-03-06T19:35:40.893Z,999.6
2023-03-06T19:37:25.858Z,999.57
2023-03-06T19:39:10.841Z,999.48
2023-03-06T19:40:55.802Z,999.44
2023-03-06T19:42:40.827Z,999.41
2023-03-06T19:44:25.836Z,999.42
2023-03-06T19:46:10.885Z,999.42
2023-03-06T19:47:55.831Z,999.33
2023-03-06T19:49:40.872Z,999.35
2023-03-06T19:51:25.863Z,999.39
2023-03-06T19:53:10.841Z,999.47
2023-03-06T19:54:55.848Z,999.35
2023-03-06T19:56:40.823Z,999.29
2023-03-06T19:58:25.849Z,999.37
2023-03-06T20:00:10.915Z,999.4
2023-03-06T20:01:55.855Z,999.28
2023-03-06T20:03:40.854Z,999.24
2023-03-06T20:05:25.869Z,999.2
2023-03-06T20:07:10.861Z,999.12
2023-03-06T20:08:55.915Z,999.07
2023-03-06T20:10:40.870Z,999.05
2023-03-06T20:12:25.873Z,999.04
2023-03-06T20:14:10.858Z,998.87
2023-03-06T20:15:55.920Z,999
2023-03-06T20:17:41.510Z,998.8
2023-03-06T20:19:25.864Z,998.9
2023-03-06T20:21:10.869Z,998.85
2023-03-06T20:22:55.906Z,998.85
2023-03-06T20:24:40.858Z,998.75
2023-03-06T20:26:25.930Z,998.72
2023-03-06T20:28:10.862Z,998.88
2023-03-06T20:29:55.879Z,998.82
2023-03-06T20:31:40.913Z,998.78
2023-03-06T20:33:25.859Z,998.74
2023-03-06T20:35:10.878Z,998.61
2023-03-06T20:36:55.945Z,998.68
2023-03-06T20:38:40.917Z,998.64
2023-03-06T20:40:25.923Z,998.63
2023-03-06T20:42:10.946Z,998.68
2023-03-06T20:43:55.893Z,998.71
2023-03-06T20:45:40.904Z,998.56
2023-03-06T20:47:25.961Z,998.64
2023-03-06T20:49:10.897Z,998.5
2023-03-06T20:50:55.905Z,998.55
2023-03-06T20:52:40.951Z,998.5
2023-03-06T20:54:25.936Z,998.5
2023-03-06T20:56:10.925Z,998.52
2023-03-06T20:57:55.965Z,998.47
2023-03-06T20:59:40.909Z,998.52
2023-03-06T21:01:25.952Z,998.36
2023-03-06T21:03:10.965Z,998.44
2023-03-06T21:04:55.983Z,998.38
2023-03-06T21:06:40.903Z,998.44
2023-03-06T21:08:25.999Z,998.29
2023-03-06T21:10:10.955Z,998.41
2023-03-06T21:11:55.937Z,998.37
2023-03-06T21:13:40.997Z,998.32
2023-03-06T21:15:25.948Z,998.36
2023-03-06T21:17:12.279Z,998.3
2023-03-06T21:18:55.989Z,998.21
2023-03-06T21:20:40.926Z,998.26
2023-03-06T21:22:25.938Z,998.26
2023-03-06T21:24:11.002Z,998.26
2023-03-06T21:25:55.976Z,998.25
2023-03-06T21:27:40.937Z,998.21
2023-03-06T21:29:25.972Z,998.13
2023-03-06T21:31:10.980Z,998.08
2023-03-06T21:32:55.942Z,998.13
2023-03-06T21:34:41.028Z,997.99
2023-03-06T21:36:25.964Z,998.04
2023-03-06T21:38:10.966Z,998.06
2023-03-06T21:39:56.011Z,997.96
2023-03-06T21:41:41.050Z,997.88
2023-03-06T21:43:25.971Z,997.94
2023-03-06T21:45:10.974Z,997.92
2023-03-06T21:46:55.976Z,997.9
2023-03-06T21:48:40.985Z,997.87
2023-03-06T21:50:26.000Z,997.76
2023-03-06T21:52:10.995Z,997.79
2023-03-06T21:53:55.957Z,997.73
2023-03-06T21:55:41.030Z,997.73
2023-03-06T21:57:26.003Z,997.63
2023-03-06T21:59:10.976Z,997.58
2023-03-06T22:00:56.048Z,997.61
2023-03-06T22:02:41.011Z,997.54
2023-03-06T22:04:26.035Z,997.5
2023-03-06T22:06:11.035Z,997.48
2023-03-06T22:07:56.000Z,997.41
2023-03-06T22:09:41.010Z,997.32
2023-03-06T22:11:26.044Z,997.39
2023-03-06T22:13:11.039Z,997.35
2023-03-06T22:14:56.001Z,997.26
2023-03-06T22:16:41.091Z,997.28
2023-03-06T22:18:25.980Z,997.31
2023-03-06T22:20:11.005Z,997.25
2023-03-06T22:21:56.008Z,997.18
2023-03-06T22:23:41.052Z,997.17
2023-03-06T22:25:26.009Z,997.22
2023-03-06T22:27:11.071Z,997.11
2023-03-06T22:28:56.106Z,997.14
2023-03-06T22:30:41.017Z,997.12
2023-03-06T22:32:26.103Z,997.02
2023-03-06T22:34:10.987Z,997.05
2023-03-06T22:35:56.084Z,997.05
2023-03-06T22:37:41.056Z,997.02
2023-03-06T22:39:26.048Z,997.03
2023-03-06T22:41:11.059Z,996.97
2023-03-06T22:42:56.036Z,997.03
2023-03-06T22:44:41.054Z,996.93
2023-03-06T22:46:26.108Z,996.81
2023-03-06T22:48:11.449Z,996.8
2023-03-06T22:49:56.033Z,996.82
2023-03-06T22:51:41.048Z,996.85
2023-03-06T22:53:26.055Z,996.7
2023-03-06T22:55:11.033Z,996.67
2023-03-06T22:56:56.055Z,996.7
2023-03-06T22:58:41.116Z,996.81
2023-03-06T23:00:26.077Z,996.73
2023-03-06T23:02:11.528Z,996.77
2023-03-06T23:03:56.092Z,996.71
2023-03-06T23:05:41.675Z,996.73
2023-03-06T23:07:26.106Z,996.69
2023-03-06T23:09:11.752Z,996.63
2023-03-06T23:10:56.209Z,996.67
2023-03-06T23:12:41.708Z,996.61
2023-03-06T23:14:26.191Z,996.72
2023-03-06T23:16:11.700Z,996.67
2023-03-06T23:17:56.099Z,996.56
2023-03-06T23:19:42.047Z,996.64
2023-03-06T23:21:26.099Z,996.59
2023-03-06T23:23:11.711Z,996.62
2023-03-06T23:24:56.147Z,996.44
2023-03-06T23:26:41.081Z,996.55
2023-03-06T23:28:26.995Z,996.57
2023-03-06T23:30:11.130Z,996.52
2023-03-06T23:31:56.119Z,996.52
2023-03-06T23:33:41.286Z,996.54
2023-03-06T23:35:26.184Z,996.58
2023-03-06T23:37:11.694Z,996.53
2023-03-06T23:38:56.105Z,996.42
2023-03-06T23:40:41.156Z,996.39
2023-03-06T23:42:26.124Z,996.5
2023-03-06T23:44:11.107Z,996.5
2023-03-06T23:45:56.200Z,996.4
2023-03-06T23:47:41.192Z,996.43
2023-03-06T23:49:26.129Z,996.48
2023-03-06T23:51:11.155Z,996.35
2023-03-06T23:52:56.161Z,996.45
2023-03-06T23:54:41.117Z,996.39
2023-03-06T23:56:26.205Z,996.39
2023-03-06T23:58:11.162Z,996.44
2023-03-06T23:59:56.145Z,996.35
